sensor_id;sensor_type;location;lat;lon;timestamp;pressure;altitude;pressure_sealevel;temperature;humidity
70921;BME280;58572;48.110;19.838;2023-08-12T00:01:16;98485.22;;;17.32;69.87
70921;BME280;58572;48.110;19.838;2023-08-12T00:03:48;98484.47;;;17.17;70.43
70921;BME280;58572;48.110;19.838;2023-08-12T00:06:15;98479.97;;;17.21;70.29
70921;BME280;58572;48.110;19.838;2023-08-12T00:08:42;98482.47;;;17.32;69.75
70921;BME280;58572;48.110;19.838;2023-08-12T00:11:09;98481.66;;;17.31;70.02
70921;BME280;58572;48.110;19.838;2023-08-12T00:13:36;98477.84;;;17.41;69.33
70921;BME280;58572;48.110;19.838;2023-08-12T00:16:04;98477.47;;;17.34;69.67
70921;BME280;58572;48.110;19.838;2023-08-12T00:18:31;98478.09;;;17.75;67.84
70921;BME280;58572;48.110;19.838;2023-08-12T00:21:06;98478.25;;;17.70;67.98
70921;BME280;58572;48.110;19.838;2023-08-12T00:23:38;98464.72;;;17.82;67.21
70921;BME280;58572;48.110;19.838;2023-08-12T00:26:05;98473.69;;;17.52;68.33
70921;BME280;58572;48.110;19.838;2023-08-12T00:28:32;98471.19;;;17.64;68.48
70921;BME280;58572;48.110;19.838;2023-08-12T00:31:00;98464.34;;;17.75;67.40
70921;BME280;58572;48.110;19.838;2023-08-12T00:33:27;98469.34;;;17.73;67.59
70921;BME280;58572;48.110;19.838;2023-08-12T00:35:54;98466.91;;;17.72;67.57
70921;BME280;58572;48.110;19.838;2023-08-12T00:38:23;98472.44;;;17.58;68.18
70921;BME280;58572;48.110;19.838;2023-08-12T00:40:50;98471.31;;;17.59;67.86
70921;BME280;58572;48.110;19.838;2023-08-12T00:43:17;98467.44;;;17.60;67.89
70921;BME280;58572;48.110;19.838;2023-08-12T00:45:45;98472.31;;;17.63;67.89
70921;BME280;58572;48.110;19.838;2023-08-12T00:48:12;98462.94;;;17.64;67.96
70921;BME280;58572;48.110;19.838;2023-08-12T00:50:40;98465.69;;;17.64;67.91
70921;BME280;58572;48.110;19.838;2023-08-12T00:53:08;98463.25;;;17.63;68.20
70921;BME280;58572;48.110;19.838;2023-08-12T00:55:37;98454.31;;;17.71;67.56
70921;BME280;58572;48.110;19.838;2023-08-12T00:58:05;98454.09;;;17.67;67.88
70921;BME280;58572;48.110;19.838;2023-08-12T01:00:32;98455.44;;;17.70;67.74
70921;BME280;58572;48.110;19.838;2023-08-12T01:03:00;98457.06;;;17.71;67.34
70921;BME280;58572;48.110;19.838;2023-08-12T01:05:29;98458.34;;;17.73;67.38
70921;BME280;58572;48.110;19.838;2023-08-12T01:07:56;98458.53;;;17.32;68.73
70921;BME280;58572;48.110;19.838;2023-08-12T01:10:28;98465.06;;;16.78;71.37
70921;BME280;58572;48.110;19.838;2023-08-12T01:13:06;98471.22;;;15.92;74.64
70921;BME280;58572;48.110;19.838;2023-08-12T01:15:36;98470.13;;;15.28;77.58
70921;BME280;58572;48.110;19.838;2023-08-12T01:18:05;98469.84;;;15.44;75.91
70921;BME280;58572;48.110;19.838;2023-08-12T01:20:34;98461.75;;;15.71;75.21
70921;BME280;58572;48.110;19.838;2023-08-12T01:23:09;98463.28;;;16.05;74.14
70921;BME280;58572;48.110;19.838;2023-08-12T01:25:37;98465.53;;;16.03;71.81
70921;BME280;58572;48.110;19.838;2023-08-12T01:28:05;98462.50;;;15.58;75.32
70921;BME280;58572;48.110;19.838;2023-08-12T01:30:32;98464.50;;;15.71;73.99
70921;BME280;58572;48.110;19.838;2023-08-12T01:33:05;98458.41;;;15.74;73.55
70921;BME280;58572;48.110;19.838;2023-08-12T01:35:39;98462.47;;;15.77;74.74
70921;BME280;58572;48.110;19.838;2023-08-12T01:38:09;98468.38;;;15.84;74.21
70921;BME280;58572;48.110;19.838;2023-08-12T01:40:38;98461.47;;;15.86;73.98
70921;BME280;58572;48.110;19.838;2023-08-12T01:43:05;98459.44;;;15.78;73.45
70921;BME280;58572;48.110;19.838;2023-08-12T01:45:33;98466.44;;;15.84;74.02
70921;BME280;58572;48.110;19.838;2023-08-12T01:48:01;98462.28;;;15.87;73.80
70921;BME280;58572;48.110;19.838;2023-08-12T01:50:28;98461.06;;;16.07;73.10
70921;BME280;58572;48.110;19.838;2023-08-12T01:52:55;98454.22;;;16.95;69.74
70921;BME280;58572;48.110;19.838;2023-08-12T01:55:25;98450.97;;;17.38;68.06
70921;BME280;58572;48.110;19.838;2023-08-12T01:57:52;98456.28;;;17.34;68.16
70921;BME280;58572;48.110;19.838;2023-08-12T02:00:19;98453.84;;;17.33;68.16
70921;BME280;58572;48.110;19.838;2023-08-12T02:02:46;98450.44;;;17.27;68.25
70921;BME280;58572;48.110;19.838;2023-08-12T02:05:13;98455.28;;;17.30;68.01
70921;BME280;58572;48.110;19.838;2023-08-12T02:07:40;98454.63;;;17.24;68.83
70921;BME280;58572;48.110;19.838;2023-08-12T02:10:08;98451.88;;;17.24;68.68
70921;BME280;58572;48.110;19.838;2023-08-12T02:12:36;98448.41;;;17.41;67.67
70921;BME280;58572;48.110;19.838;2023-08-12T02:15:04;98450.03;;;17.42;67.57
70921;BME280;58572;48.110;19.838;2023-08-12T02:17:32;98445.63;;;17.33;67.94
70921;BME280;58572;48.110;19.838;2023-08-12T02:19:59;98447.63;;;17.18;68.64
70921;BME280;58572;48.110;19.838;2023-08-12T02:22:26;98456.84;;;16.50;70.71
70921;BME280;58572;48.110;19.838;2023-08-12T02:24:53;98453.13;;;16.19;72.18
70921;BME280;58572;48.110;19.838;2023-08-12T02:27:20;98450.50;;;15.86;71.50
70921;BME280;58572;48.110;19.838;2023-08-12T02:29:48;98460.63;;;16.27;72.00
70921;BME280;58572;48.110;19.838;2023-08-12T02:32:15;98457.72;;;16.87;69.76
70921;BME280;58572;48.110;19.838;2023-08-12T02:34:42;98448.63;;;17.22;68.63
70921;BME280;58572;48.110;19.838;2023-08-12T02:37:09;98449.75;;;17.21;68.04
70921;BME280;58572;48.110;19.838;2023-08-12T02:39:38;98449.25;;;17.19;68.38
70921;BME280;58572;48.110;19.838;2023-08-12T02:42:05;98443.88;;;17.14;68.39
70921;BME280;58572;48.110;19.838;2023-08-12T02:44:32;98444.63;;;17.06;68.65
70921;BME280;58572;48.110;19.838;2023-08-12T02:47:01;98440.78;;;16.71;70.81
70921;BME280;58572;48.110;19.838;2023-08-12T02:49:28;98440.13;;;16.88;69.79
70921;BME280;58572;48.110;19.838;2023-08-12T02:51:55;98442.50;;;17.03;69.17
70921;BME280;58572;48.110;19.838;2023-08-12T02:54:22;98443.88;;;16.92;70.21
70921;BME280;58572;48.110;19.838;2023-08-12T02:56:50;98437.50;;;17.05;69.07
70921;BME280;58572;48.110;19.838;2023-08-12T02:59:17;98456.28;;;16.89;69.64
70921;BME280;58572;48.110;19.838;2023-08-12T03:01:44;98463.84;;;16.84;69.75
70921;BME280;58572;48.110;19.838;2023-08-12T03:04:12;98463.97;;;17.01;68.99
70921;BME280;58572;48.110;19.838;2023-08-12T03:06:39;98461.09;;;17.06;68.86
70921;BME280;58572;48.110;19.838;2023-08-12T03:09:07;98471.53;;;16.96;68.70
70921;BME280;58572;48.110;19.838;2023-08-12T03:11:34;98464.19;;;16.69;70.70
70921;BME280;58572;48.110;19.838;2023-08-12T03:14:01;98473.69;;;16.85;69.85
70921;BME280;58572;48.110;19.838;2023-08-12T03:16:28;98477.69;;;16.79;70.38
70921;BME280;58572;48.110;19.838;2023-08-12T03:18:56;98488.19;;;16.08;70.69
70921;BME280;58572;48.110;19.838;2023-08-12T03:21:25;98473.09;;;16.60;70.54
70921;BME280;58572;48.110;19.838;2023-08-12T03:23:52;98472.00;;;16.75;69.78
70921;BME280;58572;48.110;19.838;2023-08-12T03:26:19;98465.91;;;16.65;70.19
70921;BME280;58572;48.110;19.838;2023-08-12T03:28:46;98472.47;;;16.64;70.48
70921;BME280;58572;48.110;19.838;2023-08-12T03:31:13;98482.91;;;17.03;69.01
70921;BME280;58572;48.110;19.838;2023-08-12T03:33:40;98468.22;;;17.07;68.65
70921;BME280;58572;48.110;19.838;2023-08-12T03:36:08;98472.34;;;16.96;68.77
70921;BME280;58572;48.110;19.838;2023-08-12T03:38:36;98478.06;;;16.86;69.07
70921;BME280;58572;48.110;19.838;2023-08-12T03:41:04;98476.94;;;16.87;69.42
70921;BME280;58572;48.110;19.838;2023-08-12T03:43:31;98482.84;;;17.16;67.72
70921;BME280;58572;48.110;19.838;2023-08-12T03:45:59;98486.47;;;17.26;67.11
70921;BME280;58572;48.110;19.838;2023-08-12T03:48:26;98477.84;;;17.18;67.72
70921;BME280;58572;48.110;19.838;2023-08-12T03:50:53;98482.69;;;16.77;69.42
70921;BME280;58572;48.110;19.838;2023-08-12T03:53:20;98479.22;;;16.44;70.46
70921;BME280;58572;48.110;19.838;2023-08-12T03:55:49;98482.28;;;16.70;70.06
70921;BME280;58572;48.110;19.838;2023-08-12T03:58:16;98475.41;;;16.95;69.07
70921;BME280;58572;48.110;19.838;2023-08-12T04:00:44;98485.94;;;17.01;68.02
70921;BME280;58572;48.110;19.838;2023-08-12T04:03:11;98475.03;;;17.10;68.14
70921;BME280;58572;48.110;19.838;2023-08-12T04:05:47;98486.19;;;16.91;68.25
70921;BME280;58572;48.110;19.838;2023-08-12T04:08:14;98482.16;;;16.75;69.09
70921;BME280;58572;48.110;19.838;2023-08-12T04:10:44;98487.63;;;16.88;68.65
70921;BME280;58572;48.110;19.838;2023-08-12T04:13:13;98487.00;;;16.91;68.68
70921;BME280;58572;48.110;19.838;2023-08-12T04:15:40;98488.31;;;16.94;68.16
70921;BME280;58572;48.110;19.838;2023-08-12T04:18:08;98489.06;;;16.86;68.59
70921;BME280;58572;48.110;19.838;2023-08-12T04:20:37;98485.69;;;16.89;68.84
70921;BME280;58572;48.110;19.838;2023-08-12T04:23:04;98493.47;;;16.73;68.97
70921;BME280;58572;48.110;19.838;2023-08-12T04:25:31;98493.34;;;16.65;69.94
70921;BME280;58572;48.110;19.838;2023-08-12T04:27:58;98500.38;;;16.43;70.76
70921;BME280;58572;48.110;19.838;2023-08-12T04:30:27;98497.41;;;16.40;70.80
70921;BME280;58572;48.110;19.838;2023-08-12T04:32:54;98495.66;;;16.57;69.83
70921;BME280;58572;48.110;19.838;2023-08-12T04:35:21;98505.75;;;16.76;69.52
70921;BME280;58572;48.110;19.838;2023-08-12T04:37:48;98499.41;;;16.89;69.09
70921;BME280;58572;48.110;19.838;2023-08-12T04:40:15;98504.06;;;17.02;68.44
70921;BME280;58572;48.110;19.838;2023-08-12T04:42:43;98503.75;;;17.26;67.33
70921;BME280;58572;48.110;19.838;2023-08-12T04:45:10;98501.88;;;17.13;67.54
70921;BME280;58572;48.110;19.838;2023-08-12T04:47:38;98513.19;;;17.11;67.63
70921;BME280;58572;48.110;19.838;2023-08-12T04:50:06;98508.56;;;16.98;68.05
70921;BME280;58572;48.110;19.838;2023-08-12T04:52:33;98519.16;;;16.64;69.62
70921;BME280;58572;48.110;19.838;2023-08-12T04:55:01;98518.88;;;16.79;69.43
70921;BME280;58572;48.110;19.838;2023-08-12T04:57:28;98525.78;;;16.21;73.92
70921;BME280;58572;48.110;19.838;2023-08-12T04:59:56;98524.97;;;15.61;76.99
70921;BME280;58572;48.110;19.838;2023-08-12T05:02:22;98529.03;;;15.63;78.21
70921;BME280;58572;48.110;19.838;2023-08-12T05:04:51;98527.28;;;15.86;77.39
70921;BME280;58572;48.110;19.838;2023-08-12T05:07:18;98528.72;;;15.98;76.65
70921;BME280;58572;48.110;19.838;2023-08-12T05:09:46;98524.25;;;16.02;75.97
70921;BME280;58572;48.110;19.838;2023-08-12T05:12:13;98526.09;;;16.20;76.13
70921;BME280;58572;48.110;19.838;2023-08-12T05:14:40;98529.53;;;16.12;77.04
70921;BME280;58572;48.110;19.838;2023-08-12T05:17:07;98524.66;;;16.09;76.91
70921;BME280;58572;48.110;19.838;2023-08-12T05:19:34;98526.88;;;16.48;74.72
70921;BME280;58572;48.110;19.838;2023-08-12T05:22:03;98533.41;;;16.24;76.24
70921;BME280;58572;48.110;19.838;2023-08-12T05:24:30;98530.44;;;16.07;77.69
70921;BME280;58572;48.110;19.838;2023-08-12T05:26:57;98528.50;;;16.08;78.89
70921;BME280;58572;48.110;19.838;2023-08-12T05:29:24;98496.22;;;16.05;79.24
70921;BME280;58572;48.110;19.838;2023-08-12T05:31:53;98532.28;;;16.25;80.08
70921;BME280;58572;48.110;19.838;2023-08-12T05:34:20;98531.28;;;16.35;79.13
70921;BME280;58572;48.110;19.838;2023-08-12T05:36:47;98524.34;;;16.51;78.63
70921;BME280;58572;48.110;19.838;2023-08-12T05:39:16;98519.00;;;16.74;78.16
70921;BME280;58572;48.110;19.838;2023-08-12T05:41:43;98527.34;;;16.69;77.92
70921;BME280;58572;48.110;19.838;2023-08-12T05:44:11;98514.31;;;16.74;78.21
70921;BME280;58572;48.110;19.838;2023-08-12T05:46:39;98522.13;;;16.81;78.46
70921;BME280;58572;48.110;19.838;2023-08-12T05:49:06;98513.88;;;16.81;78.52
70921;BME280;58572;48.110;19.838;2023-08-12T05:51:33;98515.25;;;17.06;78.70
70921;BME280;58572;48.110;19.838;2023-08-12T05:54:00;98511.50;;;17.24;78.63
70921;BME280;58572;48.110;19.838;2023-08-12T05:56:29;98511.25;;;17.34;78.80
70921;BME280;58572;48.110;19.838;2023-08-12T05:58:56;98505.81;;;17.43;75.94
70921;BME280;58572;48.110;19.838;2023-08-12T06:01:23;98509.38;;;17.43;76.34
70921;BME280;58572;48.110;19.838;2023-08-12T06:03:50;98500.81;;;17.45;75.79
70921;BME280;58572;48.110;19.838;2023-08-12T06:06:18;98506.56;;;17.35;75.80
70921;BME280;58572;48.110;19.838;2023-08-12T06:08:45;98497.31;;;17.08;76.34
70921;BME280;58572;48.110;19.838;2023-08-12T06:11:12;98500.19;;;17.03;75.72
70921;BME280;58572;48.110;19.838;2023-08-12T06:13:41;98494.22;;;17.23;76.94
70921;BME280;58572;48.110;19.838;2023-08-12T06:16:08;98500.31;;;17.20;77.24
70921;BME280;58572;48.110;19.838;2023-08-12T06:18:35;98498.28;;;17.26;78.08
70921;BME280;58572;48.110;19.838;2023-08-12T06:21:02;98495.78;;;17.38;76.13
70921;BME280;58572;48.110;19.838;2023-08-12T06:23:29;98499.19;;;17.44;76.27
70921;BME280;58572;48.110;19.838;2023-08-12T06:25:56;98500.25;;;17.56;74.02
70921;BME280;58572;48.110;19.838;2023-08-12T06:28:24;98507.06;;;17.59;74.80
70921;BME280;58572;48.110;19.838;2023-08-12T06:30:52;98497.19;;;17.58;74.52
70921;BME280;58572;48.110;19.838;2023-08-12T06:33:19;98501.69;;;17.99;71.67
70921;BME280;58572;48.110;19.838;2023-08-12T06:35:47;98485.66;;;18.01;68.60
70921;BME280;58572;48.110;19.838;2023-08-12T06:38:14;98496.88;;;18.13;69.07
70921;BME280;58572;48.110;19.838;2023-08-12T06:40:41;98501.81;;;17.94;70.00
70921;BME280;58572;48.110;19.838;2023-08-12T06:43:08;98494.41;;;18.03;69.26
70921;BME280;58572;48.110;19.838;2023-08-12T06:45:35;98502.16;;;18.01;68.87
70921;BME280;58572;48.110;19.838;2023-08-12T06:48:05;98501.00;;;17.93;69.45
70921;BME280;58572;48.110;19.838;2023-08-12T06:50:32;98493.44;;;17.99;70.26
70921;BME280;58572;48.110;19.838;2023-08-12T06:52:59;98500.41;;;18.05;72.65
70921;BME280;58572;48.110;19.838;2023-08-12T06:55:26;98504.84;;;18.23;71.30
70921;BME280;58572;48.110;19.838;2023-08-12T06:57:53;98493.28;;;18.61;68.17
70921;BME280;58572;48.110;19.838;2023-08-12T07:00:21;98498.00;;;18.60;69.10
70921;BME280;58572;48.110;19.838;2023-08-12T07:02:48;98506.88;;;18.48;70.17
70921;BME280;58572;48.110;19.838;2023-08-12T07:05:16;98500.72;;;18.43;71.32
70921;BME280;58572;48.110;19.838;2023-08-12T07:07:43;98498.59;;;18.97;67.45
70921;BME280;58572;48.110;19.838;2023-08-12T07:10:11;98486.22;;;18.68;69.57
70921;BME280;58572;48.110;19.838;2023-08-12T07:12:38;98502.69;;;18.60;68.57
70921;BME280;58572;48.110;19.838;2023-08-12T07:15:06;98506.31;;;18.69;68.36
70921;BME280;58572;48.110;19.838;2023-08-12T07:17:33;98501.16;;;18.76;69.33
70921;BME280;58572;48.110;19.838;2023-08-12T07:20:00;98491.63;;;19.08;68.61
70921;BME280;58572;48.110;19.838;2023-08-12T07:22:31;98490.66;;;19.04;69.19
70921;BME280;58572;48.110;19.838;2023-08-12T07:24:58;98496.81;;;19.01;68.77
70921;BME280;58572;48.110;19.838;2023-08-12T07:27:25;98498.25;;;19.33;68.74
70921;BME280;58572;48.110;19.838;2023-08-12T07:29:52;98494.38;;;19.17;71.37
70921;BME280;58572;48.110;19.838;2023-08-12T07:32:20;98496.13;;;19.82;68.58
70921;BME280;58572;48.110;19.838;2023-08-12T07:34:47;98495.47;;;19.76;66.26
70921;BME280;58572;48.110;19.838;2023-08-12T07:37:14;98493.38;;;19.82;67.57
70921;BME280;58572;48.110;19.838;2023-08-12T07:39:43;98497.56;;;20.26;68.74
70921;BME280;58572;48.110;19.838;2023-08-12T07:42:11;98493.66;;;19.89;66.88
70921;BME280;58572;48.110;19.838;2023-08-12T07:44:38;98489.56;;;20.03;69.71
70921;BME280;58572;48.110;19.838;2023-08-12T07:47:05;98493.97;;;20.34;67.68
70921;BME280;58572;48.110;19.838;2023-08-12T07:49:32;98494.28;;;20.41;65.68
70921;BME280;58572;48.110;19.838;2023-08-12T07:51:59;98493.38;;;20.20;68.68
70921;BME280;58572;48.110;19.838;2023-08-12T07:54:26;98495.97;;;20.25;69.15
70921;BME280;58572;48.110;19.838;2023-08-12T07:57:04;98422.91;;;19.75;70.27
70921;BME280;58572;48.110;19.838;2023-08-12T07:59:39;98501.91;;;20.44;68.04
70921;BME280;58572;48.110;19.838;2023-08-12T08:02:06;98506.97;;;20.33;70.02
70921;BME280;58572;48.110;19.838;2023-08-12T08:04:34;98502.72;;;20.45;66.26
70921;BME280;58572;48.110;19.838;2023-08-12T08:07:01;98496.81;;;20.84;64.53
70921;BME280;58572;48.110;19.838;2023-08-12T08:09:29;98504.09;;;21.10;60.32
70921;BME280;58572;48.110;19.838;2023-08-12T08:11:57;98489.25;;;22.01;60.38
70921;BME280;58572;48.110;19.838;2023-08-12T08:14:25;98492.97;;;22.78;60.34
70921;BME280;58572;48.110;19.838;2023-08-12T08:16:53;98497.03;;;22.69;60.28
70921;BME280;58572;48.110;19.838;2023-08-12T08:19:20;98490.22;;;23.03;58.15
70921;BME280;58572;48.110;19.838;2023-08-12T08:21:47;98498.78;;;22.12;56.27
70921;BME280;58572;48.110;19.838;2023-08-12T08:24:14;98491.63;;;22.60;58.23
70921;BME280;58572;48.110;19.838;2023-08-12T08:26:41;98486.78;;;22.93;59.15
70921;BME280;58572;48.110;19.838;2023-08-12T08:29:12;98479.84;;;22.63;60.40
70921;BME280;58572;48.110;19.838;2023-08-12T08:31:39;98496.94;;;22.16;57.95
70921;BME280;58572;48.110;19.838;2023-08-12T08:34:06;98486.06;;;22.97;62.34
70921;BME280;58572;48.110;19.838;2023-08-12T08:36:35;98498.13;;;23.29;61.69
70921;BME280;58572;48.110;19.838;2023-08-12T08:39:02;98485.97;;;22.93;63.69
70921;BME280;58572;48.110;19.838;2023-08-12T08:41:31;98488.75;;;23.61;61.08
70921;BME280;58572;48.110;19.838;2023-08-12T08:44:02;98484.38;;;24.04;59.40
70921;BME280;58572;48.110;19.838;2023-08-12T08:50:05;98484.91;;;23.94;54.60
70921;BME280;58572;48.110;19.838;2023-08-12T08:52:32;98484.66;;;24.14;57.87
70921;BME280;58572;48.110;19.838;2023-08-12T08:55:00;98479.75;;;23.80;59.04
70921;BME280;58572;48.110;19.838;2023-08-12T08:57:28;98487.31;;;23.95;60.70
70921;BME280;58572;48.110;19.838;2023-08-12T08:59:55;98474.53;;;24.22;60.77
70921;BME280;58572;48.110;19.838;2023-08-12T09:02:23;98478.91;;;24.23;56.30
70921;BME280;58572;48.110;19.838;2023-08-12T09:04:51;98484.66;;;24.14;58.38
70921;BME280;58572;48.110;19.838;2023-08-12T09:07:21;98484.91;;;23.66;59.75
70921;BME280;58572;48.110;19.838;2023-08-12T09:09:49;98478.94;;;24.39;61.30
70921;BME280;58572;48.110;19.838;2023-08-12T09:12:19;98478.47;;;24.21;58.86
70921;BME280;58572;48.110;19.838;2023-08-12T09:14:47;98462.63;;;24.72;56.79
70921;BME280;58572;48.110;19.838;2023-08-12T09:17:14;98474.97;;;25.64;55.05
70921;BME280;58572;48.110;19.838;2023-08-12T09:19:41;98475.19;;;25.56;52.92
70921;BME280;58572;48.110;19.838;2023-08-12T09:22:09;98482.50;;;24.24;52.64
70921;BME280;58572;48.110;19.838;2023-08-12T09:24:38;98481.78;;;23.67;48.31
70921;BME280;58572;48.110;19.838;2023-08-12T09:27:05;98480.47;;;24.36;51.09
70921;BME280;58572;48.110;19.838;2023-08-12T09:29:33;98469.50;;;25.29;50.95
70921;BME280;58572;48.110;19.838;2023-08-12T09:32:10;98473.44;;;25.09;52.14
70921;BME280;58572;48.110;19.838;2023-08-12T09:34:37;98465.41;;;25.85;51.62
70921;BME280;58572;48.110;19.838;2023-08-12T09:37:04;98468.41;;;24.64;48.83
70921;BME280;58572;48.110;19.838;2023-08-12T09:39:31;98471.13;;;24.13;48.56
70921;BME280;58572;48.110;19.838;2023-08-12T09:42:00;98470.63;;;24.74;55.24
70921;BME280;58572;48.110;19.838;2023-08-12T09:44:28;98469.75;;;24.89;53.32
70921;BME280;58572;48.110;19.838;2023-08-12T09:46:58;98466.28;;;23.94;48.13
70921;BME280;58572;48.110;19.838;2023-08-12T09:49:25;98460.09;;;25.57;47.18
70921;BME280;58572;48.110;19.838;2023-08-12T09:51:53;98456.78;;;26.13;49.06
70921;BME280;58572;48.110;19.838;2023-08-12T09:54:21;98450.78;;;25.49;47.97
70921;BME280;58572;48.110;19.838;2023-08-12T09:56:54;98451.97;;;25.29;47.78
70921;BME280;58572;48.110;19.838;2023-08-12T09:59:24;98445.88;;;26.27;46.20
70921;BME280;58572;48.110;19.838;2023-08-12T10:01:52;98450.88;;;25.33;45.11
70921;BME280;58572;48.110;19.838;2023-08-12T10:04:22;98437.19;;;24.90;49.23
70921;BME280;58572;48.110;19.838;2023-08-12T10:06:50;98443.25;;;25.50;49.34
70921;BME280;58572;48.110;19.838;2023-08-12T10:09:17;98439.31;;;25.12;46.51
70921;BME280;58572;48.110;19.838;2023-08-12T10:11:47;98437.00;;;25.98;47.82
70921;BME280;58572;48.110;19.838;2023-08-12T10:14:14;98433.00;;;26.19;46.50
70921;BME280;58572;48.110;19.838;2023-08-12T10:16:46;98440.19;;;26.43;46.17
70921;BME280;58572;48.110;19.838;2023-08-12T10:19:15;98437.38;;;26.20;44.99
70921;BME280;58572;48.110;19.838;2023-08-12T10:21:44;98427.75;;;26.14;47.47
70921;BME280;58572;48.110;19.838;2023-08-12T10:24:11;98433.50;;;25.40;45.04
70921;BME280;58572;48.110;19.838;2023-08-12T10:26:42;98423.72;;;27.17;47.50
70921;BME280;58572;48.110;19.838;2023-08-12T10:29:10;98434.31;;;25.40;44.18
70921;BME280;58572;48.110;19.838;2023-08-12T10:31:38;98422.50;;;26.88;46.19
70921;BME280;58572;48.110;19.838;2023-08-12T10:34:19;98417.56;;;26.78;44.66
70921;BME280;58572;48.110;19.838;2023-08-12T10:36:47;98422.91;;;27.16;47.75
70921;BME280;58572;48.110;19.838;2023-08-12T10:39:14;98408.16;;;26.33;41.65
70921;BME280;58572;48.110;19.838;2023-08-12T10:41:50;98414.97;;;26.13;49.68
70921;BME280;58572;48.110;19.838;2023-08-12T10:44:20;98415.28;;;25.85;44.98
70921;BME280;58572;48.110;19.838;2023-08-12T10:46:52;98413.53;;;25.34;48.80
70921;BME280;58572;48.110;19.838;2023-08-12T10:49:21;98413.16;;;27.03;46.76
70921;BME280;58572;48.110;19.838;2023-08-12T10:51:50;98415.16;;;28.10;45.13
70921;BME280;58572;48.110;19.838;2023-08-12T10:54:22;98405.84;;;27.58;46.10
70921;BME280;58572;48.110;19.838;2023-08-12T10:57:05;98403.72;;;26.85;46.87
70921;BME280;58572;48.110;19.838;2023-08-12T10:59:52;98413.63;;;25.61;54.01
70921;BME280;58572;48.110;19.838;2023-08-12T11:02:26;98404.41;;;26.48;45.81
70921;BME280;58572;48.110;19.838;2023-08-12T11:04:57;98395.75;;;27.13;48.24
70921;BME280;58572;48.110;19.838;2023-08-12T11:07:32;98369.44;;;26.84;46.73
70921;BME280;58572;48.110;19.838;2023-08-12T11:10:04;98404.28;;;25.50;43.10
70921;BME280;58572;48.110;19.838;2023-08-12T11:12:34;98401.25;;;26.50;44.93
70921;BME280;58572;48.110;19.838;2023-08-12T11:15:03;98368.88;;;27.01;47.77
70921;BME280;58572;48.110;19.838;2023-08-12T11:17:34;98397.50;;;26.16;40.72
70921;BME280;58572;48.110;19.838;2023-08-12T11:20:06;98384.00;;;27.67;47.19
70921;BME280;58572;48.110;19.838;2023-08-12T11:22:37;98388.91;;;26.81;43.38
70921;BME280;58572;48.110;19.838;2023-08-12T11:25:06;98373.59;;;27.27;46.59
70921;BME280;58572;48.110;19.838;2023-08-12T11:27:43;98385.34;;;25.59;43.83
70921;BME280;58572;48.110;19.838;2023-08-12T11:30:13;98384.59;;;27.87;45.68
70921;BME280;58572;48.110;19.838;2023-08-12T11:32:41;98393.50;;;25.48;44.58
70921;BME280;58572;48.110;19.838;2023-08-12T11:35:11;98391.31;;;25.38;42.04
70921;BME280;58572;48.110;19.838;2023-08-12T11:37:40;98377.50;;;27.19;44.62
70921;BME280;58572;48.110;19.838;2023-08-12T11:40:08;98379.34;;;27.08;40.75
70921;BME280;58572;48.110;19.838;2023-08-12T11:42:36;98361.19;;;26.95;44.37
70921;BME280;58572;48.110;19.838;2023-08-12T11:45:05;98382.34;;;26.66;47.13
70921;BME280;58572;48.110;19.838;2023-08-12T11:47:33;98373.59;;;26.15;51.66
70921;BME280;58572;48.110;19.838;2023-08-12T11:50:02;98375.75;;;26.51;52.05
70921;BME280;58572;48.110;19.838;2023-08-12T11:52:31;98375.81;;;25.60;53.64
70921;BME280;58572;48.110;19.838;2023-08-12T11:54:58;98365.53;;;26.32;55.94
70921;BME280;58572;48.110;19.838;2023-08-12T11:57:26;98361.47;;;26.03;51.10
70921;BME280;58572;48.110;19.838;2023-08-12T11:59:58;98362.81;;;25.44;58.12
70921;BME280;58572;48.110;19.838;2023-08-12T12:02:26;98366.31;;;26.06;55.29
70921;BME280;58572;48.110;19.838;2023-08-12T12:04:53;98359.75;;;27.04;53.34
70921;BME280;58572;48.110;19.838;2023-08-12T12:07:20;98353.66;;;26.13;57.79
70921;BME280;58572;48.110;19.838;2023-08-12T12:09:52;98347.53;;;26.86;52.89
70921;BME280;58572;48.110;19.838;2023-08-12T12:12:22;98352.50;;;27.33;52.92
70921;BME280;58572;48.110;19.838;2023-08-12T12:14:51;98354.63;;;27.84;52.91
70921;BME280;58572;48.110;19.838;2023-08-12T12:17:21;98339.31;;;28.15;49.85
70921;BME280;58572;48.110;19.838;2023-08-12T12:19:52;98321.78;;;28.95;47.78
70921;BME280;58572;48.110;19.838;2023-08-12T12:22:26;98339.19;;;28.59;43.39
70921;BME280;58572;48.110;19.838;2023-08-12T12:24:57;98341.28;;;27.67;47.34
70921;BME280;58572;48.110;19.838;2023-08-12T12:27:25;98345.34;;;27.73;48.04
70921;BME280;58572;48.110;19.838;2023-08-12T12:29:51;98338.25;;;27.05;49.37
70921;BME280;58572;48.110;19.838;2023-08-12T12:32:19;98342.19;;;27.78;47.08
70921;BME280;58572;48.110;19.838;2023-08-12T12:34:46;98337.16;;;28.49;44.81
70921;BME280;58572;48.110;19.838;2023-08-12T12:37:14;98330.66;;;27.83;45.87
70921;BME280;58572;48.110;19.838;2023-08-12T12:39:41;98318.75;;;28.48;44.17
70921;BME280;58572;48.110;19.838;2023-08-12T12:42:10;98324.50;;;28.11;48.75
70921;BME280;58572;48.110;19.838;2023-08-12T12:44:37;98332.44;;;26.91;54.19
70921;BME280;58572;48.110;19.838;2023-08-12T12:47:05;98326.91;;;28.82;48.94
70921;BME280;58572;48.110;19.838;2023-08-12T12:49:32;98333.75;;;28.19;44.73
70921;BME280;58572;48.110;19.838;2023-08-12T12:51:59;98318.94;;;28.84;42.49
70921;BME280;58572;48.110;19.838;2023-08-12T12:54:26;98323.34;;;27.68;50.52
70921;BME280;58572;48.110;19.838;2023-08-12T12:56:55;98327.56;;;27.51;50.48
70921;BME280;58572;48.110;19.838;2023-08-12T12:59:23;98327.19;;;25.54;51.56